sensor_id;sensor_type;location;lat;lon;timestamp;temperature;humidity
4811;DHT22;2419;51.276;6.472;2023-03-14T00:00:25;12.00;99.90
4811;DHT22;2419;51.276;6.472;2023-03-14T00:02:53;12.10;99.90
4811;DHT22;2419;51.276;6.472;2023-03-14T00:05:21;12.00;99.90
4811;DHT22;2419;51.276;6.472;2023-03-14T00:07:50;12.10;99.90
4811;DHT22;2419;51.276;6.472;2023-03-14T00:10:19;12.10;99.90
4811;DHT22;2419;51.276;6.472;2023-03-14T00:12:47;12.20;99.90
4811;DHT22;2419;51.276;6.472;2023-03-14T00:15:15;11.90;99.90
4811;DHT22;2419;51.276;6.472;2023-03-14T00:17:43;11.60;99.90
4811;DHT22;2419;51.276;6.472;2023-03-14T00:20:12;11.30;99.90
4811;DHT22;2419;51.276;6.472;2023-03-14T00:22:41;11.00;99.90
4811;DHT22;2419;51.276;6.472;2023-03-14T00:25:10;10.90;99.90
4811;DHT22;2419;51.276;6.472;2023-03-14T00:27:39;10.70;99.90
4811;DHT22;2419;51.276;6.472;2023-03-14T00:30:08;10.50;99.90
4811;DHT22;2419;51.276;6.472;2023-03-14T00:32:37;10.50;99.90
4811;DHT22;2419;51.276;6.472;2023-03-14T00:35:05;10.40;99.90
4811;DHT22;2419;51.276;6.472;2023-03-14T00:37:33;10.40;99.90
4811;DHT22;2419;51.276;6.472;2023-03-14T00:40:01;10.30;99.90
4811;DHT22;2419;51.276;6.472;2023-03-14T00:42:33;10.30;99.90
4811;DHT22;2419;51.276;6.472;2023-03-14T00:45:02;10.30;99.90
4811;DHT22;2419;51.276;6.472;2023-03-14T00:47:33;10.30;99.90
4811;DHT22;2419;51.276;6.472;2023-03-14T00:50:01;10.20;99.90
4811;DHT22;2419;51.276;6.472;2023-03-14T00:52:29;10.10;99.90
4811;DHT22;2419;51.276;6.472;2023-03-14T00:54:57;10.10;99.90
4811;DHT22;2419;51.276;6.472;2023-03-14T00:57:25;10.00;99.90
4811;DHT22;2419;51.276;6.472;2023-03-14T00:59:53;10.00;99.90
4811;DHT22;2419;51.276;6.472;2023-03-14T01:02:22;10.00;99.90
4811;DHT22;2419;51.276;6.472;2023-03-14T01:04:50;9.90;99.90
4811;DHT22;2419;51.276;6.472;2023-03-14T01:07:18;10.00;99.90
4811;DHT22;2419;51.276;6.472;2023-03-14T01:09:46;10.00;99.90
4811;DHT22;2419;51.276;6.472;2023-03-14T01:12:14;10.00;99.90
4811;DHT22;2419;51.276;6.472;2023-03-14T01:14:42;9.90;99.90
4811;DHT22;2419;51.276;6.472;2023-03-14T01:17:10;9.80;99.90
4811;DHT22;2419;51.276;6.472;2023-03-14T01:19:40;9.80;99.90
4811;DHT22;2419;51.276;6.472;2023-03-14T01:22:08;9.80;99.90
4811;DHT22;2419;51.276;6.472;2023-03-14T01:24:37;9.80;99.90
4811;DHT22;2419;51.276;6.472;2023-03-14T01:27:05;9.80;99.90
4811;DHT22;2419;51.276;6.472;2023-03-14T01:29:33;9.80;99.90
4811;DHT22;2419;51.276;6.472;2023-03-14T01:32:02;9.80;99.90
4811;DHT22;2419;51.276;6.472;2023-03-14T01:34:31;9.90;99.90
4811;DHT22;2419;51.276;6.472;2023-03-14T01:37:00;9.90;99.90
4811;DHT22;2419;51.276;6.472;2023-03-14T01:39:30;10.00;99.90
4811;DHT22;2419;51.276;6.472;2023-03-14T01:41:58;10.10;99.90
4811;DHT22;2419;51.276;6.472;2023-03-14T01:44:27;10.10;99.90
4811;DHT22;2419;51.276;6.472;2023-03-14T01:46:55;10.10;99.90
4811;DHT22;2419;51.276;6.472;2023-03-14T01:49:26;10.10;99.90
4811;DHT22;2419;51.276;6.472;2023-03-14T01:52:10;10.00;99.90
4811;DHT22;2419;51.276;6.472;2023-03-14T01:54:42;10.00;99.90
4811;DHT22;2419;51.276;6.472;2023-03-14T01:57:13;10.10;99.90
4811;DHT22;2419;51.276;6.472;2023-03-14T01:59:46;10.10;99.90
4811;DHT22;2419;51.276;6.472;2023-03-14T02:02:16;10.10;99.90
4811;DHT22;2419;51.276;6.472;2023-03-14T02:04:45;10.10;99.90
4811;DHT22;2419;51.276;6.472;2023-03-14T02:07:19;10.10;99.90
4811;DHT22;2419;51.276;6.472;2023-03-14T02:10:09;10.10;99.90
4811;DHT22;2419;51.276;6.472;2023-03-14T02:12:38;10.20;99.90
4811;DHT22;2419;51.276;6.472;2023-03-14T02:15:26;10.20;99.90
4811;DHT22;2419;51.276;6.472;2023-03-14T02:18:14;10.20;99.90
4811;DHT22;2419;51.276;6.472;2023-03-14T02:21:01;10.20;99.90
4811;DHT22;2419;51.276;6.472;2023-03-14T02:23:39;10.10;99.90
4811;DHT22;2419;51.276;6.472;2023-03-14T02:26:11;10.20;99.90
4811;DHT22;2419;51.276;6.472;2023-03-14T02:28:44;10.30;99.90
4811;DHT22;2419;51.276;6.472;2023-03-14T02:31:13;10.30;99.90
4811;DHT22;2419;51.276;6.472;2023-03-14T02:33:42;10.30;99.90
4811;DHT22;2419;51.276;6.472;2023-03-14T02:36:12;10.30;99.90
4811;DHT22;2419;51.276;6.472;2023-03-14T02:38:45;10.30;99.90
4811;DHT22;2419;51.276;6.472;2023-03-14T02:41:15;10.30;99.90
4811;DHT22;2419;51.276;6.472;2023-03-14T02:43:50;10.30;99.90
4811;DHT22;2419;51.276;6.472;2023-03-14T02:46:20;10.30;99.90
4811;DHT22;2419;51.276;6.472;2023-03-14T02:48:52;10.30;99.90
4811;DHT22;2419;51.276;6.472;2023-03-14T02:51:21;10.30;99.90
4811;DHT22;2419;51.276;6.472;2023-03-14T02:53:50;10.30;99.90
4811;DHT22;2419;51.276;6.472;2023-03-14T02:56:19;10.30;99.90
4811;DHT22;2419;51.276;6.472;2023-03-14T02:58:50;10.30;99.90
4811;DHT22;2419;51.276;6.472;2023-03-14T03:01:44;10.20;99.90
4811;DHT22;2419;51.276;6.472;2023-03-14T03:04:12;10.30;99.90
4811;DHT22;2419;51.276;6.472;2023-03-14T03:06:40;10.30;99.90
4811;DHT22;2419;51.276;6.472;2023-03-14T03:09:09;10.30;99.90
4811;DHT22;2419;51.276;6.472;2023-03-14T03:11:37;10.30;99.90
4811;DHT22;2419;51.276;6.472;2023-03-14T03:14:07;10.30;99.90
4811;DHT22;2419;51.276;6.472;2023-03-14T03:16:35;10.30;99.90
4811;DHT22;2419;51.276;6.472;2023-03-14T03:19:03;10.40;99.90
4811;DHT22;2419;51.276;6.472;2023-03-14T03:21:31;10.40;99.90
4811;DHT22;2419;51.276;6.472;2023-03-14T03:23:59;10.30;99.90
4811;DHT22;2419;51.276;6.472;2023-03-14T03:26:27;10.30;99.90
4811;DHT22;2419;51.276;6.472;2023-03-14T03:28:55;10.30;99.90
4811;DHT22;2419;51.276;6.472;2023-03-14T03:31:25;10.20;99.90
4811;DHT22;2419;51.276;6.472;2023-03-14T03:33:53;10.20;99.90
4811;DHT22;2419;51.276;6.472;2023-03-14T03:36:21;10.20;99.90
4811;DHT22;2419;51.276;6.472;2023-03-14T03:38:50;10.20;99.90
4811;DHT22;2419;51.276;6.472;2023-03-14T03:41:18;10.20;99.90
4811;DHT22;2419;51.276;6.472;2023-03-14T03:43:48;10.20;99.90
4811;DHT22;2419;51.276;6.472;2023-03-14T03:46:17;10.10;99.90
4811;DHT22;2419;51.276;6.472;2023-03-14T03:48:46;10.10;99.90
4811;DHT22;2419;51.276;6.472;2023-03-14T03:51:15;9.90;99.90
4811;DHT22;2419;51.276;6.472;2023-03-14T03:53:43;9.60;99.90
4811;DHT22;2419;51.276;6.472;2023-03-14T03:56:15;9.40;99.90
4811;DHT22;2419;51.276;6.472;2023-03-14T03:58:43;9.40;99.90
4811;DHT22;2419;51.276;6.472;2023-03-14T04:01:11;9.30;99.90
4811;DHT22;2419;51.276;6.472;2023-03-14T04:03:40;9.30;99.90
4811;DHT22;2419;51.276;6.472;2023-03-14T04:06:11;9.30;99.90
4811;DHT22;2419;51.276;6.472;2023-03-14T04:08:42;9.30;99.90
4811;DHT22;2419;51.276;6.472;2023-03-14T04:11:30;9.30;99.90
4811;DHT22;2419;51.276;6.472;2023-03-14T04:14:05;9.30;99.90
4811;DHT22;2419;51.276;6.472;2023-03-14T04:16:33;9.20;99.90
4811;DHT22;2419;51.276;6.472;2023-03-14T04:19:09;9.20;99.90
4811;DHT22;2419;51.276;6.472;2023-03-14T04:21:38;9.10;99.90
4811;DHT22;2419;51.276;6.472;2023-03-14T04:24:11;9.20;99.90
4811;DHT22;2419;51.276;6.472;2023-03-14T04:26:41;9.20;99.90
4811;DHT22;2419;51.276;6.472;2023-03-14T04:29:10;9.10;99.90
4811;DHT22;2419;51.276;6.472;2023-03-14T04:31:40;9.10;99.90
4811;DHT22;2419;51.276;6.472;2023-03-14T04:34:09;9.10;99.90
4811;DHT22;2419;51.276;6.472;2023-03-14T04:36:44;9.00;99.90
4811;DHT22;2419;51.276;6.472;2023-03-14T04:39:17;9.00;99.90
4811;DHT22;2419;51.276;6.472;2023-03-14T04:41:54;8.90;99.90
4811;DHT22;2419;51.276;6.472;2023-03-14T04:44:23;8.80;99.90
4811;DHT22;2419;51.276;6.472;2023-03-14T04:46:52;8.80;99.90
4811;DHT22;2419;51.276;6.472;2023-03-14T04:49:22;8.80;99.90
4811;DHT22;2419;51.276;6.472;2023-03-14T04:51:52;8.80;99.90
4811;DHT22;2419;51.276;6.472;2023-03-14T04:54:22;8.80;99.90
4811;DHT22;2419;51.276;6.472;2023-03-14T04:56:54;8.70;99.90
4811;DHT22;2419;51.276;6.472;2023-03-14T04:59:23;8.70;99.90
4811;DHT22;2419;51.276;6.472;2023-03-14T05:01:54;8.80;99.90
4811;DHT22;2419;51.276;6.472;2023-03-14T05:04:45;8.70;99.90
4811;DHT22;2419;51.276;6.472;2023-03-14T05:07:36;8.80;99.90
4811;DHT22;2419;51.276;6.472;2023-03-14T05:10:34;8.80;99.90
4811;DHT22;2419;51.276;6.472;2023-03-14T05:13:13;8.90;99.90
4811;DHT22;2419;51.276;6.472;2023-03-14T05:15:53;8.90;99.90
4811;DHT22;2419;51.276;6.472;2023-03-14T05:18:44;8.90;99.90
4811;DHT22;2419;51.276;6.472;2023-03-14T05:21:24;9.00;99.90
4811;DHT22;2419;51.276;6.472;2023-03-14T05:24:12;9.00;99.90
4811;DHT22;2419;51.276;6.472;2023-03-14T05:26:49;9.10;99.90
4811;DHT22;2419;51.276;6.472;2023-03-14T05:29:42;9.10;99.90
4811;DHT22;2419;51.276;6.472;2023-03-14T05:32:19;9.10;99.90
4811;DHT22;2419;51.276;6.472;2023-03-14T05:35:08;9.20;99.90
4811;DHT22;2419;51.276;6.472;2023-03-14T05:38:04;9.20;99.90
4811;DHT22;2419;51.276;6.472;2023-03-14T05:40:48;9.30;99.90
4811;DHT22;2419;51.276;6.472;2023-03-14T05:43:34;9.30;99.90
4811;DHT22;2419;51.276;6.472;2023-03-14T05:46:17;9.40;99.90
4811;DHT22;2419;51.276;6.472;2023-03-14T05:49:12;9.40;99.90
4811;DHT22;2419;51.276;6.472;2023-03-14T05:51:59;9.40;99.90
4811;DHT22;2419;51.276;6.472;2023-03-14T05:55:02;9.40;99.90
4811;DHT22;2419;51.276;6.472;2023-03-14T05:57:57;9.40;99.90
4811;DHT22;2419;51.276;6.472;2023-03-14T06:00:37;9.40;99.90
4811;DHT22;2419;51.276;6.472;2023-03-14T06:03:30;9.40;99.90
4811;DHT22;2419;51.276;6.472;2023-03-14T06:05:58;9.40;99.90
4811;DHT22;2419;51.276;6.472;2023-03-14T06:08:26;9.50;99.90
4811;DHT22;2419;51.276;6.472;2023-03-14T06:10:56;9.50;99.90
4811;DHT22;2419;51.276;6.472;2023-03-14T06:13:30;9.50;99.90
4811;DHT22;2419;51.276;6.472;2023-03-14T06:15:58;9.50;99.90
4811;DHT22;2419;51.276;6.472;2023-03-14T06:18:26;9.60;99.90
4811;DHT22;2419;51.276;6.472;2023-03-14T06:20:56;9.60;99.90
4811;DHT22;2419;51.276;6.472;2023-03-14T06:23:26;9.60;99.90
4811;DHT22;2419;51.276;6.472;2023-03-14T06:25:56;9.60;99.90
4811;DHT22;2419;51.276;6.472;2023-03-14T06:28:25;9.60;99.90
4811;DHT22;2419;51.276;6.472;2023-03-14T06:30:59;9.60;99.90
4811;DHT22;2419;51.276;6.472;2023-03-14T06:33:33;9.60;99.90
4811;DHT22;2419;51.276;6.472;2023-03-14T06:36:02;9.50;99.90
4811;DHT22;2419;51.276;6.472;2023-03-14T06:38:31;9.60;99.90
4811;DHT22;2419;51.276;6.472;2023-03-14T06:41:03;9.50;99.90
4811;DHT22;2419;51.276;6.472;2023-03-14T06:43:37;9.60;99.90
4811;DHT22;2419;51.276;6.472;2023-03-14T06:46:08;9.50;99.90
4811;DHT22;2419;51.276;6.472;2023-03-14T06:48:38;9.50;99.90
4811;DHT22;2419;51.276;6.472;2023-03-14T06:51:07;9.60;99.90
4811;DHT22;2419;51.276;6.472;2023-03-14T06:53:35;9.70;99.90
4811;DHT22;2419;51.276;6.472;2023-03-14T06:56:05;9.70;99.90
4811;DHT22;2419;51.276;6.472;2023-03-14T06:58:34;9.80;99.90
4811;DHT22;2419;51.276;6.472;2023-03-14T07:01:05;9.80;99.90
4811;DHT22;2419;51.276;6.472;2023-03-14T07:03:40;9.70;99.90
4811;DHT22;2419;51.276;6.472;2023-03-14T07:06:09;9.70;99.90
4811;DHT22;2419;51.276;6.472;2023-03-14T07:08:37;9.70;99.90
4811;DHT22;2419;51.276;6.472;2023-03-14T07:11:06;9.70;99.90
4811;DHT22;2419;51.276;6.472;2023-03-14T07:13:34;9.70;99.90
4811;DHT22;2419;51.276;6.472;2023-03-14T07:16:06;9.80;99.90
4811;DHT22;2419;51.276;6.472;2023-03-14T07:18:36;9.80;99.90
4811;DHT22;2419;51.276;6.472;2023-03-14T07:21:07;9.80;99.90
4811;DHT22;2419;51.276;6.472;2023-03-14T07:23:37;9.90;99.90
4811;DHT22;2419;51.276;6.472;2023-03-14T07:26:07;9.90;99.90
4811;DHT22;2419;51.276;6.472;2023-03-14T07:28:38;9.90;99.90
4811;DHT22;2419;51.276;6.472;2023-03-14T07:31:11;9.90;99.90
4811;DHT22;2419;51.276;6.472;2023-03-14T07:33:40;9.90;99.90
4811;DHT22;2419;51.276;6.472;2023-03-14T07:36:10;9.90;99.90
4811;DHT22;2419;51.276;6.472;2023-03-14T07:38:41;9.90;99.90
4811;DHT22;2419;51.276;6.472;2023-03-14T07:41:18;9.90;99.90
4811;DHT22;2419;51.276;6.472;2023-03-14T07:44:22;9.90;99.90
4811;DHT22;2419;51.276;6.472;2023-03-14T07:46:50;10.10;99.90
4811;DHT22;2419;51.276;6.472;2023-03-14T07:49:18;10.10;99.90
4811;DHT22;2419;51.276;6.472;2023-03-14T07:51:48;10.20;99.90
4811;DHT22;2419;51.276;6.472;2023-03-14T07:54:17;10.40;99.90
4811;DHT22;2419;51.276;6.472;2023-03-14T07:56:46;10.40;99.90
4811;DHT22;2419;51.276;6.472;2023-03-14T07:59:14;10.40;99.90
4811;DHT22;2419;51.276;6.472;2023-03-14T08:01:43;10.40;99.90
4811;DHT22;2419;51.276;6.472;2023-03-14T08:04:11;10.40;99.90
4811;DHT22;2419;51.276;6.472;2023-03-14T08:06:39;10.50;99.90
4811;DHT22;2419;51.276;6.472;2023-03-14T08:09:08;10.50;99.90
4811;DHT22;2419;51.276;6.472;2023-03-14T08:11:36;10.50;99.90
4811;DHT22;2419;51.276;6.472;2023-03-14T08:14:04;10.60;99.90
4811;DHT22;2419;51.276;6.472;2023-03-14T08:16:32;10.70;99.90
4811;DHT22;2419;51.276;6.472;2023-03-14T08:19:00;10.70;99.90
4811;DHT22;2419;51.276;6.472;2023-03-14T08:21:28;10.80;99.90
4811;DHT22;2419;51.276;6.472;2023-03-14T08:23:56;10.70;99.90
4811;DHT22;2419;51.276;6.472;2023-03-14T08:26:26;10.80;99.90
4811;DHT22;2419;51.276;6.472;2023-03-14T08:28:54;10.80;99.90
4811;DHT22;2419;51.276;6.472;2023-03-14T08:31:22;10.70;99.90
4811;DHT22;2419;51.276;6.472;2023-03-14T08:33:50;10.60;99.90
4811;DHT22;2419;51.276;6.472;2023-03-14T08:36:20;10.50;99.90
4811;DHT22;2419;51.276;6.472;2023-03-14T08:38:50;10.50;99.90
4811;DHT22;2419;51.276;6.472;2023-03-14T08:41:18;10.50;99.90
4811;DHT22;2419;51.276;6.472;2023-03-14T08:43:47;10.40;99.90
4811;DHT22;2419;51.276;6.472;2023-03-14T08:46:15;10.40;99.90
4811;DHT22;2419;51.276;6.472;2023-03-14T08:48:43;10.50;99.90
4811;DHT22;2419;51.276;6.472;2023-03-14T08:51:13;10.40;99.90
4811;DHT22;2419;51.276;6.472;2023-03-14T08:53:41;10.40;99.90
4811;DHT22;2419;51.276;6.472;2023-03-14T08:56:10;10.50;99.90
4811;DHT22;2419;51.276;6.472;2023-03-14T08:58:38;10.50;99.90
4811;DHT22;2419;51.276;6.472;2023-03-14T09:01:08;10.40;99.90
4811;DHT22;2419;51.276;6.472;2023-03-14T09:03:37;10.00;99.90
4811;DHT22;2419;51.276;6.472;2023-03-14T09:06:08;9.70;99.90
4811;DHT22;2419;51.276;6.472;2023-03-14T09:08:37;9.50;99.90
4811;DHT22;2419;51.276;6.472;2023-03-14T09:11:07;9.30;99.90
4811;DHT22;2419;51.276;6.472;2023-03-14T09:13:36;9.10;99.90
4811;DHT22;2419;51.276;6.472;2023-03-14T09:16:05;8.90;99.90
4811;DHT22;2419;51.276;6.472;2023-03-14T09:18:35;8.80;99.90
4811;DHT22;2419;51.276;6.472;2023-03-14T09:21:03;8.80;99.90
4811;DHT22;2419;51.276;6.472;2023-03-14T09:23:32;8.80;99.90
4811;DHT22;2419;51.276;6.472;2023-03-14T09:26:00;8.90;99.90
4811;DHT22;2419;51.276;6.472;2023-03-14T09:28:28;9.00;99.90
4811;DHT22;2419;51.276;6.472;2023-03-14T09:30:57;9.00;99.90
4811;DHT22;2419;51.276;6.472;2023-03-14T09:33:25;9.10;99.90
4811;DHT22;2419;51.276;6.472;2023-03-14T09:35:58;9.00;99.90
4811;DHT22;2419;51.276;6.472;2023-03-14T09:38:26;9.10;99.90
4811;DHT22;2419;51.276;6.472;2023-03-14T09:40:55;9.00;99.90
4811;DHT22;2419;51.276;6.472;2023-03-14T09:43:27;8.90;99.90
4811;DHT22;2419;51.276;6.472;2023-03-14T09:45:57;8.80;99.90
4811;DHT22;2419;51.276;6.472;2023-03-14T09:48:27;8.80;99.90
4811;DHT22;2419;51.276;6.472;2023-03-14T09:51:01;8.80;99.90
4811;DHT22;2419;51.276;6.472;2023-03-14T09:53:36;8.80;99.90
4811;DHT22;2419;51.276;6.472;2023-03-14T09:56:11;8.90;99.90
4811;DHT22;2419;51.276;6.472;2023-03-14T09:58:41;9.00;99.90
4811;DHT22;2419;51.276;6.472;2023-03-14T10:01:12;9.20;99.90
4811;DHT22;2419;51.276;6.472;2023-03-14T10:03:44;9.20;99.90
4811;DHT22;2419;51.276;6.472;2023-03-14T10:06:15;9.30;99.90
4811;DHT22;2419;51.276;6.472;2023-03-14T10:08:44;9.20;99.90
4811;DHT22;2419;51.276;6.472;2023-03-14T10:11:14;9.30;99.90
4811;DHT22;2419;51.276;6.472;2023-03-14T10:13:52;9.20;99.90
4811;DHT22;2419;51.276;6.472;2023-03-14T10:16:31;9.20;99.90
4811;DHT22;2419;51.276;6.472;2023-03-14T10:19:03;9.10;99.90
4811;DHT22;2419;51.276;6.472;2023-03-14T10:21:37;8.90;99.90
4811;DHT22;2419;51.276;6.472;2023-03-14T10:24:20;8.80;99.90
4811;DHT22;2419;51.276;6.472;2023-03-14T10:26:49;8.60;99.90
4811;DHT22;2419;51.276;6.472;2023-03-14T10:29:18;8.40;99.90
4811;DHT22;2419;51.276;6.472;2023-03-14T10:31:51;8.40;99.90
4811;DHT22;2419;51.276;6.472;2023-03-14T10:34:25;8.40;99.90
4811;DHT22;2419;51.276;6.472;2023-03-14T10:36:57;8.40;99.90
4811;DHT22;2419;51.276;6.472;2023-03-14T10:39:35;8.40;99.90
4811;DHT22;2419;51.276;6.472;2023-03-14T10:42:13;8.40;99.90
4811;DHT22;2419;51.276;6.472;2023-03-14T10:44:42;8.30;99.90
4811;DHT22;2419;51.276;6.472;2023-03-14T10:47:17;8.20;99.90
4811;DHT22;2419;51.276;6.472;2023-03-14T10:49:46;8.10;99.90
4811;DHT22;2419;51.276;6.472;2023-03-14T10:52:20;8.10;99.90
4811;DHT22;2419;51.276;6.472;2023-03-14T10:54:58;7.90;99.90
4811;DHT22;2419;51.276;6.472;2023-03-14T10:57:27;7.90;99.90
4811;DHT22;2419;51.276;6.472;2023-03-14T10:59:56;7.90;99.90
4811;DHT22;2419;51.276;6.472;2023-03-14T11:02:37;8.00;99.90
4811;DHT22;2419;51.276;6.472;2023-03-14T11:05:21;8.10;99.90
4811;DHT22;2419;51.276;6.472;2023-03-14T11:07:53;8.00;99.90
4811;DHT22;2419;51.276;6.472;2023-03-14T11:10:26;8.00;99.90
4811;DHT22;2419;51.276;6.472;2023-03-14T11:13:07;8.10;99.90
4811;DHT22;2419;51.276;6.472;2023-03-14T11:15:41;8.00;99.90
4811;DHT22;2419;51.276;6.472;2023-03-14T11:21:11;8.00;99.90
4811;DHT22;2419;51.276;6.472;2023-03-14T11:23:47;8.00;99.90
4811;DHT22;2419;51.276;6.472;2023-03-14T11:26:24;8.10;99.90
4811;DHT22;2419;51.276;6.472;2023-03-14T11:28:57;8.10;99.90
4811;DHT22;2419;51.276;6.472;2023-03-14T11:31:27;8.10;99.90
4811;DHT22;2419;51.276;6.472;2023-03-14T11:34:01;8.00;99.90
4811;DHT22;2419;51.276;6.472;2023-03-14T11:36:34;8.20;99.90
4811;DHT22;2419;51.276;6.472;2023-03-14T11:39:11;8.20;99.90
4811;DHT22;2419;51.276;6.472;2023-03-14T11:41:41;8.00;99.90
4811;DHT22;2419;51.276;6.472;2023-03-14T11:44:18;8.10;99.90
4811;DHT22;2419;51.276;6.472;2023-03-14T11:46:50;8.10;99.90
4811;DHT22;2419;51.276;6.472;2023-03-14T11:49:30;8.00;99.90
4811;DHT22;2419;51.276;6.472;2023-03-14T11:52:04;7.90;99.90
4811;DHT22;2419;51.276;6.472;2023-03-14T11:54:40;7.90;99.90
4811;DHT22;2419;51.276;6.472;2023-03-14T11:57:15;7.80;99.90
4811;DHT22;2419;51.276;6.472;2023-03-14T11:59:49;7.60;99.90
4811;DHT22;2419;51.276;6.472;2023-03-14T12:02:22;7.60;99.90
4811;DHT22;2419;51.276;6.472;2023-03-14T12:08:38;7.60;99.90
4811;DHT22;2419;51.276;6.472;2023-03-14T12:11:13;7.70;99.90
4811;DHT22;2419;51.276;6.472;2023-03-14T12:13:46;7.80;99.90
4811;DHT22;2419;51.276;6.472;2023-03-14T12:16:36;8.10;99.90
4811;DHT22;2419;51.276;6.472;2023-03-14T12:22:00;8.70;99.90
4811;DHT22;2419;51.276;6.472;2023-03-14T12:24:30;8.60;99.90
4811;DHT22;2419;51.276;6.472;2023-03-14T12:27:02;8.30;99.90
4811;DHT22;2419;51.276;6.472;2023-03-14T12:29:31;8.30;99.90
4811;DHT22;2419;51.276;6.472;2023-03-14T12:32:21;8.50;99.90
4811;DHT22;2419;51.276;6.472;2023-03-14T12:34:50;9.00;99.90
4811;DHT22;2419;51.276;6.472;2023-03-14T12:37:33;9.20;99.90
4811;DHT22;2419;51.276;6.472;2023-03-14T12:40:13;9.30;99.90
4811;DHT22;2419;51.276;6.472;2023-03-14T12:42:57;9.00;99.90
4811;DHT22;2419;51.276;6.472;2023-03-14T12:45:28;8.10;99.90
4811;DHT22;2419;51.276;6.472;2023-03-14T12:48:08;7.20;99.90
4811;DHT22;2419;51.276;6.472;2023-03-14T12:50:41;7.00;99.90
4811;DHT22;2419;51.276;6.472;2023-03-14T12:53:45;6.80;99.90
4811;DHT22;2419;51.276;6.472;2023-03-14T12:56:33;6.70;99.90
4811;DHT22;2419;51.276;6.472;2023-03-14T12:59:28;6.60;99.90
4811;DHT22;2419;51.276;6.472;2023-03-14T13:02:00;6.50;99.90
4811;DHT22;2419;51.276;6.472;2023-03-14T13:04:32;6.80;99.90
4811;DHT22;2419;51.276;6.472;2023-03-14T13:07:11;7.10;99.90
4811;DHT22;2419;51.276;6.472;2023-03-14T13:10:02;7.10;99.90
4811;DHT22;2419;51.276;6.472;2023-03-14T13:12:37;7.50;99.90
4811;DHT22;2419;51.276;6.472;2023-03-14T13:15:18;7.60;99.90
4811;DHT22;2419;51.276;6.472;2023-03-14T13:17:48;7.70;99.90
4811;DHT22;2419;51.276;6.472;2023-03-14T13:20:21;8.00;99.90
4811;DHT22;2419;51.276;6.472;2023-03-14T13:22:50;8.50;99.90
4811;DHT22;2419;51.276;6.472;2023-03-14T13:25:18;8.30;99.90
4811;DHT22;2419;51.276;6.472;2023-03-14T13:27:49;8.20;99.90
4811;DHT22;2419;51.276;6.472;2023-03-14T13:30:23;7.90;99.90
4811;DHT22;2419;51.276;6.472;2023-03-14T13:32:53;7.80;99.90
4811;DHT22;2419;51.276;6.472;2023-03-14T13:35:27;7.80;99.90
4811;DHT22;2419;51.276;6.472;2023-03-14T13:37:57;8.00;99.90
4811;DHT22;2419;51.276;6.472;2023-03-14T13:40:37;8.00;99.90
4811;DHT22;2419;51.276;6.472;2023-03-14T13:43:13;8.50;99.90
4811;DHT22;2419;51.276;6.472;2023-03-14T13:45:48;8.60;99.90
4811;DHT22;2419;51.276;6.472;2023-03-14T13:48:17;9.30;99.90
4811;DHT22;2419;51.276;6.472;2023-03-14T13:50:55;10.10;99.90
4811;DHT22;2419;51.276;6.472;2023-03-14T13:53:24;10.70;99.90
4811;DHT22;2419;51.276;6.472;2023-03-14T13:55:52;10.90;99.90
4811;DHT22;2419;51.276;6.472;2023-03-14T13:58:24;10.80;99.90
4811;DHT22;2419;51.276;6.472;2023-03-14T14:00:57;10.60;99.90
4811;DHT22;2419;51.276;6.472;2023-03-14T14:03:26;10.50;99.90
4811;DHT22;2419;51.276;6.472;2023-03-14T14:05:56;10.40;99.90
4811;DHT22;2419;51.276;6.472;2023-03-14T14:08:26;10.40;99.90
4811;DHT22;2419;51.276;6.472;2023-03-14T14:10:59;9.80;99.90
4811;DHT22;2419;51.276;6.472;2023-03-14T14:13:29;9.30;99.90
4811;DHT22;2419;51.276;6.472;2023-03-14T14:16:02;9.50;99.90
4811;DHT22;2419;51.276;6.472;2023-03-14T14:18:32;9.30;99.90
4811;DHT22;2419;51.276;6.472;2023-03-14T14:21:00;9.10;99.90
4811;DHT22;2419;51.276;6.472;2023-03-14T14:23:29;9.00;99.90
4811;DHT22;2419;51.276;6.472;2023-03-14T14:25:59;9.10;99.90
4811;DHT22;2419;51.276;6.472;2023-03-14T14:28:28;9.00;99.90
4811;DHT22;2419;51.276;6.472;2023-03-14T14:31:03;9.00;99.90
4811;DHT22;2419;51.276;6.472;2023-03-14T14:33:39;9.00;99.90
4811;DHT22;2419;51.276;6.472;2023-03-14T14:36:22;9.00;99.90
4811;DHT22;2419;51.276;6.472;2023-03-14T14:38:52;9.00;99.90
4811;DHT22;2419;51.276;6.472;2023-03-14T14:41:20;9.10;99.90
4811;DHT22;2419;51.276;6.472;2023-03-14T14:43:49;9.10;99.90
4811;DHT22;2419;51.276;6.472;2023-03-14T14:46:20;9.20;99.60
4811;DHT22;2419;51.276;6.472;2023-03-14T14:48:48;9.20;98.40
4811;DHT22;2419;51.276;6.472;2023-03-14T14:51:26;9.20;98.90
4811;DHT22;2419;51.276;6.472;2023-03-14T14:54:11;9.20;97.90
4811;DHT22;2419;51.276;6.472;2023-03-14T14:56:40;9.30;97.10
4811;DHT22;2419;51.276;6.472;2023-03-14T14:59:21;9.40;97.60
4811;DHT22;2419;51.276;6.472;2023-03-14T15:01:55;9.40;97.10
4811;DHT22;2419;51.276;6.472;2023-03-14T15:04:24;9.20;96.90
4811;DHT22;2419;51.276;6.472;2023-03-14T15:06:54;9.00;96.40
4811;DHT22;2419;51.276;6.472;2023-03-14T15:09:22;8.90;96.10
4811;DHT22;2419;51.276;6.472;2023-03-14T15:11:50;9.00;96.00
4811;DHT22;2419;51.276;6.472;2023-03-14T15:14:18;8.90;96.00
4811;DHT22;2419;51.276;6.472;2023-03-14T15:16:46;9.00;96.10
4811;DHT22;2419;51.276;6.472;2023-03-14T15:19:20;9.00;95.80
4811;DHT22;2419;51.276;6.472;2023-03-14T15:21:52;9.00;96.00
4811;DHT22;2419;51.276;6.472;2023-03-14T15:24:20;8.90;96.90
4811;DHT22;2419;51.276;6.472;2023-03-14T15:26:48;9.00;96.60
4811;DHT22;2419;51.276;6.472;2023-03-14T15:29:16;8.90;96.70
4811;DHT22;2419;51.276;6.472;2023-03-14T15:31:44;8.90;96.60
4811;DHT22;2419;51.276;6.472;2023-03-14T15:34:13;8.90;95.90
4811;DHT22;2419;51.276;6.472;2023-03-14T15:36:43;8.80;96.20
4811;DHT22;2419;51.276;6.472;2023-03-14T15:39:11;8.80;95.20
4811;DHT22;2419;51.276;6.472;2023-03-14T15:41:39;8.70;95.30
4811;DHT22;2419;51.276;6.472;2023-03-14T15:44:07;8.60;95.70
4811;DHT22;2419;51.276;6.472;2023-03-14T15:46:35;8.40;95.10
4811;DHT22;2419;51.276;6.472;2023-03-14T15:49:03;8.30;95.80
4811;DHT22;2419;51.276;6.472;2023-03-14T15:51:31;8.30;95.20
4811;DHT22;2419;51.276;6.472;2023-03-14T15:54:01;8.20;95.00
4811;DHT22;2419;51.276;6.472;2023-03-14T15:56:29;8.20;95.80
4811;DHT22;2419;51.276;6.472;2023-03-14T15:58:58;8.10;96.20
4811;DHT22;2419;51.276;6.472;2023-03-14T16:01:26;8.10;96.20
4811;DHT22;2419;51.276;6.472;2023-03-14T16:03:54;8.10;96.00
4811;DHT22;2419;51.276;6.472;2023-03-14T16:06:22;8.10;95.90
4811;DHT22;2419;51.276;6.472;2023-03-14T16:08:50;8.10;95.30
4811;DHT22;2419;51.276;6.472;2023-03-14T16:11:20;8.10;94.70
4811;DHT22;2419;51.276;6.472;2023-03-14T16:13:49;8.00;94.40
4811;DHT22;2419;51.276;6.472;2023-03-14T16:16:17;7.90;95.00
4811;DHT22;2419;51.276;6.472;2023-03-14T16:18:45;7.90;94.90
4811;DHT22;2419;51.276;6.472;2023-03-14T16:21:15;7.80;94.90
4811;DHT22;2419;51.276;6.472;2023-03-14T16:23:43;7.80;94.80
4811;DHT22;2419;51.276;6.472;2023-03-14T16:26:13;7.80;94.90
4811;DHT22;2419;51.276;6.472;2023-03-14T16:28:44;7.70;95.10
4811;DHT22;2419;51.276;6.472;2023-03-14T16:31:15;7.70;95.60
4811;DHT22;2419;51.276;6.472;2023-03-14T16:33:44;7.70;95.50
4811;DHT22;2419;51.276;6.472;2023-03-14T16:36:13;7.70;95.70
4811;DHT22;2419;51.276;6.472;2023-03-14T16:38:42;7.60;95.40
4811;DHT22;2419;51.276;6.472;2023-03-14T16:41:12;7.60;95.30
4811;DHT22;2419;51.276;6.472;2023-03-14T16:43:41;7.50;95.20
4811;DHT22;2419;51.276;6.472;2023-03-14T16:46:14;7.40;96.30
4811;DHT22;2419;51.276;6.472;2023-03-14T16:48:43;7.40;95.70
4811;DHT22;2419;51.276;6.472;2023-03-14T16:51:12;7.30;96.00
4811;DHT22;2419;51.276;6.472;2023-03-14T16:53:42;7.30;96.00